sensor_id;sensor_type;location;lat;lon;timestamp;P1;durP1;ratioP1;P2;durP2;ratioP2
53245;SDS011;39569;51.090;-1.786;2023-03-01T00:00:10;1.70;;;1.60;;
53245;SDS011;39569;51.090;-1.786;2023-03-01T00:02:37;8.55;;;2.50;;
53245;SDS011;39569;51.090;-1.786;2023-03-01T00:05:04;2.45;;;2.35;;
53245;SDS011;39569;51.090;-1.786;2023-03-01T00:07:32;2.80;;;2.05;;
53245;SDS011;39569;51.090;-1.786;2023-03-01T00:09:59;3.53;;;2.40;;
53245;SDS011;39569;51.090;-1.786;2023-03-01T00:12:26;1.95;;;1.85;;
53245;SDS011;39569;51.090;-1.786;2023-03-01T00:14:54;2.20;;;2.10;;
53245;SDS011;39569;51.090;-1.786;2023-03-01T00:17:21;2.30;;;2.10;;
53245;SDS011;39569;51.090;-1.786;2023-03-01T00:19:47;3.38;;;2.60;;
53245;SDS011;39569;51.090;-1.786;2023-03-01T00:22:14;2.45;;;2.28;;
53245;SDS011;39569;51.090;-1.786;2023-03-01T00:24:41;2.40;;;2.30;;
53245;SDS011;39569;51.090;-1.786;2023-03-01T00:27:08;2.80;;;2.58;;
53245;SDS011;39569;51.090;-1.786;2023-03-01T00:29:34;2.85;;;2.53;;
53245;SDS011;39569;51.090;-1.786;2023-03-01T00:32:03;3.42;;;2.65;;
53245;SDS011;39569;51.090;-1.786;2023-03-01T00:34:29;4.03;;;2.58;;
53245;SDS011;39569;51.090;-1.786;2023-03-01T00:36:56;4.05;;;2.97;;
53245;SDS011;39569;51.090;-1.786;2023-03-01T00:39:30;2.63;;;2.53;;
53245;SDS011;39569;51.090;-1.786;2023-03-01T00:41:57;2.70;;;2.60;;
53245;SDS011;39569;51.090;-1.786;2023-03-01T00:44:24;3.47;;;3.13;;
53245;SDS011;39569;51.090;-1.786;2023-03-01T00:46:50;2.40;;;2.30;;
53245;SDS011;39569;51.090;-1.786;2023-03-01T00:49:19;4.85;;;2.97;;
53245;SDS011;39569;51.090;-1.786;2023-03-01T00:51:45;4.35;;;4.03;;
53245;SDS011;39569;51.090;-1.786;2023-03-01T00:54:12;2.58;;;2.38;;
53245;SDS011;39569;51.090;-1.786;2023-03-01T00:56:39;2.90;;;2.70;;
53245;SDS011;39569;51.090;-1.786;2023-03-01T00:59:05;5.80;;;3.13;;
53245;SDS011;39569;51.090;-1.786;2023-03-01T01:01:32;5.05;;;4.38;;
53245;SDS011;39569;51.090;-1.786;2023-03-01T01:04:00;26.05;;;3.20;;
53245;SDS011;39569;51.090;-1.786;2023-03-01T01:06:29;2.78;;;2.58;;
53245;SDS011;39569;51.090;-1.786;2023-03-01T01:08:58;3.35;;;3.05;;
53245;SDS011;39569;51.090;-1.786;2023-03-01T01:11:26;4.75;;;2.83;;
53245;SDS011;39569;51.090;-1.786;2023-03-01T01:13:55;2.75;;;2.55;;
53245;SDS011;39569;51.090;-1.786;2023-03-01T01:16:22;3.70;;;3.10;;
53245;SDS011;39569;51.090;-1.786;2023-03-01T01:18:50;4.03;;;3.72;;
53245;SDS011;39569;51.090;-1.786;2023-03-01T01:21:18;3.10;;;2.90;;
53245;SDS011;39569;51.090;-1.786;2023-03-01T01:23:48;4.25;;;3.97;;
53245;SDS011;39569;51.090;-1.786;2023-03-01T01:26:16;3.75;;;3.47;;
53245;SDS011;39569;51.090;-1.786;2023-03-01T01:28:45;3.60;;;3.38;;
53245;SDS011;39569;51.090;-1.786;2023-03-01T01:31:12;3.47;;;3.28;;
53245;SDS011;39569;51.090;-1.786;2023-03-01T01:33:39;4.32;;;4.03;;
53245;SDS011;39569;51.090;-1.786;2023-03-01T01:36:06;5.68;;;3.80;;
53245;SDS011;39569;51.090;-1.786;2023-03-01T01:38:34;4.65;;;4.32;;
53245;SDS011;39569;51.090;-1.786;2023-03-01T01:41:03;4.05;;;3.78;;
53245;SDS011;39569;51.090;-1.786;2023-03-01T01:43:32;4.28;;;3.97;;
53245;SDS011;39569;51.090;-1.786;2023-03-01T01:46:01;4.18;;;3.88;;
53245;SDS011;39569;51.090;-1.786;2023-03-01T01:48:32;5.97;;;5.38;;
53245;SDS011;39569;51.090;-1.786;2023-03-01T01:51:07;4.75;;;4.03;;
53245;SDS011;39569;51.090;-1.786;2023-03-01T01:53:38;6.00;;;5.53;;
53245;SDS011;39569;51.090;-1.786;2023-03-01T01:56:08;4.07;;;3.78;;
53245;SDS011;39569;51.090;-1.786;2023-03-01T01:58:38;6.60;;;5.10;;
53245;SDS011;39569;51.090;-1.786;2023-03-01T02:01:05;3.70;;;3.45;;
53245;SDS011;39569;51.090;-1.786;2023-03-01T02:03:33;4.45;;;3.92;;
53245;SDS011;39569;51.090;-1.786;2023-03-01T02:06:08;4.78;;;4.38;;
53245;SDS011;39569;51.090;-1.786;2023-03-01T02:08:40;6.05;;;5.45;;
53245;SDS011;39569;51.090;-1.786;2023-03-01T02:11:10;4.18;;;3.88;;
53245;SDS011;39569;51.090;-1.786;2023-03-01T02:13:39;4.78;;;4.30;;
53245;SDS011;39569;51.090;-1.786;2023-03-01T02:16:08;5.00;;;4.60;;
53245;SDS011;39569;51.090;-1.786;2023-03-01T02:18:36;5.40;;;4.90;;
53245;SDS011;39569;51.090;-1.786;2023-03-01T02:21:08;4.72;;;4.32;;
53245;SDS011;39569;51.090;-1.786;2023-03-01T02:23:46;5.03;;;4.57;;
53245;SDS011;39569;51.090;-1.786;2023-03-01T02:26:17;6.28;;;4.90;;
53245;SDS011;39569;51.090;-1.786;2023-03-01T02:28:48;4.90;;;4.55;;
53245;SDS011;39569;51.090;-1.786;2023-03-01T02:31:16;4.05;;;3.85;;
53245;SDS011;39569;51.090;-1.786;2023-03-01T02:34:03;7.20;;;5.00;;
53245;SDS011;39569;51.090;-1.786;2023-03-01T02:36:35;3.63;;;3.42;;
53245;SDS011;39569;51.090;-1.786;2023-03-01T02:39:05;3.67;;;3.38;;
53245;SDS011;39569;51.090;-1.786;2023-03-01T02:41:39;3.65;;;3.35;;
53245;SDS011;39569;51.090;-1.786;2023-03-01T02:44:10;3.50;;;3.30;;
53245;SDS011;39569;51.090;-1.786;2023-03-01T02:46:41;3.58;;;3.28;;
53245;SDS011;39569;51.090;-1.786;2023-03-01T02:49:16;9.10;;;3.45;;
53245;SDS011;39569;51.090;-1.786;2023-03-01T02:51:47;2.40;;;2.30;;
53245;SDS011;39569;51.090;-1.786;2023-03-01T02:54:28;3.47;;;2.47;;
53245;SDS011;39569;51.090;-1.786;2023-03-01T02:56:57;2.92;;;2.72;;
53245;SDS011;39569;51.090;-1.786;2023-03-01T02:59:26;3.47;;;3.17;;
53245;SDS011;39569;51.090;-1.786;2023-03-01T03:01:56;7.97;;;3.78;;
53245;SDS011;39569;51.090;-1.786;2023-03-01T03:04:23;3.38;;;3.13;;
53245;SDS011;39569;51.090;-1.786;2023-03-01T03:06:50;2.72;;;2.53;;
53245;SDS011;39569;51.090;-1.786;2023-03-01T03:09:18;3.28;;;2.97;;
53245;SDS011;39569;51.090;-1.786;2023-03-01T03:11:45;3.67;;;3.33;;
53245;SDS011;39569;51.090;-1.786;2023-03-01T03:14:13;2.95;;;2.75;;
53245;SDS011;39569;51.090;-1.786;2023-03-01T03:16:43;2.35;;;2.25;;
53245;SDS011;39569;51.090;-1.786;2023-03-01T03:19:11;4.13;;;2.47;;
53245;SDS011;39569;51.090;-1.786;2023-03-01T03:21:38;2.80;;;2.50;;
53245;SDS011;39569;51.090;-1.786;2023-03-01T03:24:05;3.58;;;3.13;;
53245;SDS011;39569;51.090;-1.786;2023-03-01T03:26:32;3.67;;;3.45;;
53245;SDS011;39569;51.090;-1.786;2023-03-01T03:28:59;2.38;;;2.17;;
53245;SDS011;39569;51.090;-1.786;2023-03-01T03:31:26;3.42;;;2.92;;
53245;SDS011;39569;51.090;-1.786;2023-03-01T03:33:54;3.35;;;3.10;;
53245;SDS011;39569;51.090;-1.786;2023-03-01T03:36:22;4.75;;;2.45;;
53245;SDS011;39569;51.090;-1.786;2023-03-01T03:38:50;2.90;;;2.70;;
53245;SDS011;39569;51.090;-1.786;2023-03-01T03:41:16;8.02;;;3.13;;
53245;SDS011;39569;51.090;-1.786;2023-03-01T03:43:43;3.85;;;3.58;;
53245;SDS011;39569;51.090;-1.786;2023-03-01T03:46:10;3.50;;;3.20;;
53245;SDS011;39569;51.090;-1.786;2023-03-01T03:48:38;6.53;;;3.17;;
53245;SDS011;39569;51.090;-1.786;2023-03-01T03:51:11;3.65;;;3.22;;
53245;SDS011;39569;51.090;-1.786;2023-03-01T03:53:39;3.38;;;2.95;;
53245;SDS011;39569;51.090;-1.786;2023-03-01T03:56:06;4.68;;;3.88;;
53245;SDS011;39569;51.090;-1.786;2023-03-01T03:58:33;5.00;;;4.55;;
53245;SDS011;39569;51.090;-1.786;2023-03-01T04:01:00;3.92;;;3.65;;
53245;SDS011;39569;51.090;-1.786;2023-03-01T04:03:28;4.60;;;4.20;;
53245;SDS011;39569;51.090;-1.786;2023-03-01T04:05:57;3.67;;;3.38;;
53245;SDS011;39569;51.090;-1.786;2023-03-01T04:08:26;3.72;;;3.53;;
53245;SDS011;39569;51.090;-1.786;2023-03-01T04:10:56;4.07;;;3.78;;
53245;SDS011;39569;51.090;-1.786;2023-03-01T04:13:24;5.75;;;5.18;;
53245;SDS011;39569;51.090;-1.786;2023-03-01T04:15:52;4.85;;;4.45;;
53245;SDS011;39569;51.090;-1.786;2023-03-01T04:18:20;5.05;;;4.68;;
53245;SDS011;39569;51.090;-1.786;2023-03-01T04:20:48;4.50;;;4.20;;
53245;SDS011;39569;51.090;-1.786;2023-03-01T04:23:18;7.35;;;5.13;;
53245;SDS011;39569;51.090;-1.786;2023-03-01T04:25:47;5.18;;;4.80;;
53245;SDS011;39569;51.090;-1.786;2023-03-01T04:28:19;4.25;;;3.95;;
53245;SDS011;39569;51.090;-1.786;2023-03-01T04:30:46;4.38;;;4.07;;
53245;SDS011;39569;51.090;-1.786;2023-03-01T04:33:12;5.05;;;4.68;;
53245;SDS011;39569;51.090;-1.786;2023-03-01T04:35:39;4.72;;;3.28;;
53245;SDS011;39569;51.090;-1.786;2023-03-01T04:38:06;5.65;;;4.70;;
53245;SDS011;39569;51.090;-1.786;2023-03-01T04:40:33;8.73;;;5.10;;
53245;SDS011;39569;51.090;-1.786;2023-03-01T04:43:02;5.53;;;4.32;;
53245;SDS011;39569;51.090;-1.786;2023-03-01T04:45:30;5.15;;;4.72;;
53245;SDS011;39569;51.090;-1.786;2023-03-01T04:47:59;5.10;;;4.70;;
53245;SDS011;39569;51.090;-1.786;2023-03-01T04:50:26;6.25;;;5.75;;
53245;SDS011;39569;51.090;-1.786;2023-03-01T04:52:53;5.30;;;4.80;;
53245;SDS011;39569;51.090;-1.786;2023-03-01T04:55:23;9.07;;;7.03;;
53245;SDS011;39569;51.090;-1.786;2023-03-01T04:57:51;5.38;;;4.93;;
53245;SDS011;39569;51.090;-1.786;2023-03-01T05:00:19;4.88;;;4.47;;
53245;SDS011;39569;51.090;-1.786;2023-03-01T05:02:51;5.07;;;4.57;;
53245;SDS011;39569;51.090;-1.786;2023-03-01T05:05:22;4.93;;;4.53;;
53245;SDS011;39569;51.090;-1.786;2023-03-01T05:07:52;4.30;;;3.90;;
53245;SDS011;39569;51.090;-1.786;2023-03-01T05:10:19;4.43;;;4.05;;
53245;SDS011;39569;51.090;-1.786;2023-03-01T05:12:47;4.72;;;4.32;;
53245;SDS011;39569;51.090;-1.786;2023-03-01T05:15:13;5.65;;;4.32;;
53245;SDS011;39569;51.090;-1.786;2023-03-01T05:17:42;4.82;;;3.33;;
53245;SDS011;39569;51.090;-1.786;2023-03-01T05:20:09;4.03;;;3.00;;
53245;SDS011;39569;51.090;-1.786;2023-03-01T05:22:37;12.93;;;4.35;;
53245;SDS011;39569;51.090;-1.786;2023-03-01T05:25:04;3.35;;;3.05;;
53245;SDS011;39569;51.090;-1.786;2023-03-01T05:27:32;2.72;;;2.53;;
53245;SDS011;39569;51.090;-1.786;2023-03-01T05:29:59;3.38;;;3.17;;
53245;SDS011;39569;51.090;-1.786;2023-03-01T05:32:38;2.83;;;2.63;;
53245;SDS011;39569;51.090;-1.786;2023-03-01T05:35:08;3.88;;;3.55;;
53245;SDS011;39569;51.090;-1.786;2023-03-01T05:37:40;3.35;;;3.10;;
53245;SDS011;39569;51.090;-1.786;2023-03-01T05:40:08;2.83;;;2.63;;
53245;SDS011;39569;51.090;-1.786;2023-03-01T05:42:42;2.72;;;2.40;;
53245;SDS011;39569;51.090;-1.786;2023-03-01T05:45:09;2.95;;;2.75;;
53245;SDS011;39569;51.090;-1.786;2023-03-01T05:47:37;2.00;;;1.90;;
53245;SDS011;39569;51.090;-1.786;2023-03-01T05:50:10;4.15;;;3.03;;
53245;SDS011;39569;51.090;-1.786;2023-03-01T05:52:43;3.50;;;3.22;;
53245;SDS011;39569;51.090;-1.786;2023-03-01T05:55:10;2.78;;;2.65;;
53245;SDS011;39569;51.090;-1.786;2023-03-01T05:57:37;3.35;;;3.05;;
53245;SDS011;39569;51.090;-1.786;2023-03-01T06:00:04;3.28;;;2.90;;
53245;SDS011;39569;51.090;-1.786;2023-03-01T06:02:32;6.22;;;3.42;;
53245;SDS011;39569;51.090;-1.786;2023-03-01T06:04:59;3.85;;;3.55;;
53245;SDS011;39569;51.090;-1.786;2023-03-01T06:07:27;2.75;;;2.55;;
53245;SDS011;39569;51.090;-1.786;2023-03-01T06:09:54;3.47;;;3.20;;
53245;SDS011;39569;51.090;-1.786;2023-03-01T06:12:20;5.65;;;4.03;;
53245;SDS011;39569;51.090;-1.786;2023-03-01T06:14:47;3.75;;;3.45;;
53245;SDS011;39569;51.090;-1.786;2023-03-01T06:17:14;5.93;;;4.35;;
53245;SDS011;39569;51.090;-1.786;2023-03-01T06:19:41;5.10;;;3.00;;
53245;SDS011;39569;51.090;-1.786;2023-03-01T06:22:07;3.25;;;3.03;;
53245;SDS011;39569;51.090;-1.786;2023-03-01T06:24:36;3.90;;;3.60;;
53245;SDS011;39569;51.090;-1.786;2023-03-01T06:27:02;3.75;;;3.45;;
53245;SDS011;39569;51.090;-1.786;2023-03-01T06:29:29;6.13;;;4.40;;
53245;SDS011;39569;51.090;-1.786;2023-03-01T06:31:56;4.13;;;3.80;;
53245;SDS011;39569;51.090;-1.786;2023-03-01T06:34:23;5.10;;;4.15;;
53245;SDS011;39569;51.090;-1.786;2023-03-01T06:36:49;4.20;;;3.90;;
53245;SDS011;39569;51.090;-1.786;2023-03-01T06:39:16;4.18;;;3.78;;
53245;SDS011;39569;51.090;-1.786;2023-03-01T06:41:44;3.75;;;3.50;;
53245;SDS011;39569;51.090;-1.786;2023-03-01T06:44:11;5.38;;;4.80;;
53245;SDS011;39569;51.090;-1.786;2023-03-01T06:46:38;3.65;;;3.35;;
53245;SDS011;39569;51.090;-1.786;2023-03-01T06:49:05;4.07;;;3.28;;
53245;SDS011;39569;51.090;-1.786;2023-03-01T06:51:34;5.45;;;4.50;;
53245;SDS011;39569;51.090;-1.786;2023-03-01T06:54:01;6.90;;;3.25;;
53245;SDS011;39569;51.090;-1.786;2023-03-01T06:56:28;10.18;;;5.18;;
53245;SDS011;39569;51.090;-1.786;2023-03-01T06:58:56;8.93;;;6.13;;
53245;SDS011;39569;51.090;-1.786;2023-03-01T07:01:23;4.03;;;3.72;;
53245;SDS011;39569;51.090;-1.786;2023-03-01T07:03:50;3.38;;;3.08;;
53245;SDS011;39569;51.090;-1.786;2023-03-01T07:06:17;3.25;;;3.05;;
53245;SDS011;39569;51.090;-1.786;2023-03-01T07:08:43;3.15;;;2.85;;
53245;SDS011;39569;51.090;-1.786;2023-03-01T07:11:10;2.65;;;2.50;;
53245;SDS011;39569;51.090;-1.786;2023-03-01T07:13:37;3.20;;;2.53;;
53245;SDS011;39569;51.090;-1.786;2023-03-01T07:16:05;2.72;;;2.53;;
53245;SDS011;39569;51.090;-1.786;2023-03-01T07:18:33;2.05;;;1.98;;
53245;SDS011;39569;51.090;-1.786;2023-03-01T07:21:03;2.65;;;2.45;;
53245;SDS011;39569;51.090;-1.786;2023-03-01T07:23:30;3.13;;;2.92;;
53245;SDS011;39569;51.090;-1.786;2023-03-01T07:25:57;10.30;;;5.35;;
53245;SDS011;39569;51.090;-1.786;2023-03-01T07:28:24;3.20;;;2.17;;
53245;SDS011;39569;51.090;-1.786;2023-03-01T07:30:51;1.75;;;1.65;;
53245;SDS011;39569;51.090;-1.786;2023-03-01T07:33:19;2.25;;;2.15;;
53245;SDS011;39569;51.090;-1.786;2023-03-01T07:35:46;2.40;;;2.20;;
53245;SDS011;39569;51.090;-1.786;2023-03-01T07:38:13;3.25;;;3.05;;
53245;SDS011;39569;51.090;-1.786;2023-03-01T07:40:40;2.10;;;1.92;;
53245;SDS011;39569;51.090;-1.786;2023-03-01T07:43:06;6.45;;;2.67;;
53245;SDS011;39569;51.090;-1.786;2023-03-01T07:45:33;3.60;;;3.30;;
53245;SDS011;39569;51.090;-1.786;2023-03-01T07:48:00;2.05;;;1.95;;
53245;SDS011;39569;51.090;-1.786;2023-03-01T07:50:28;1.77;;;1.67;;
53245;SDS011;39569;51.090;-1.786;2023-03-01T07:52:54;7.05;;;2.30;;
53245;SDS011;39569;51.090;-1.786;2023-03-01T07:55:21;4.07;;;2.17;;
53245;SDS011;39569;51.090;-1.786;2023-03-01T07:57:48;2.17;;;2.03;;
53245;SDS011;39569;51.090;-1.786;2023-03-01T08:00:15;1.75;;;1.65;;
53245;SDS011;39569;51.090;-1.786;2023-03-01T08:02:42;5.13;;;3.22;;
53245;SDS011;39569;51.090;-1.786;2023-03-01T08:05:09;1.73;;;1.63;;
53245;SDS011;39569;51.090;-1.786;2023-03-01T08:07:37;3.08;;;2.10;;
53245;SDS011;39569;51.090;-1.786;2023-03-01T08:10:04;2.63;;;2.42;;
53245;SDS011;39569;51.090;-1.786;2023-03-01T08:12:31;2.60;;;2.40;;
53245;SDS011;39569;51.090;-1.786;2023-03-01T08:14:58;2.75;;;2.63;;
53245;SDS011;39569;51.090;-1.786;2023-03-01T08:17:25;2.35;;;2.15;;
53245;SDS011;39569;51.090;-1.786;2023-03-01T08:19:52;2.38;;;2.28;;
53245;SDS011;39569;51.090;-1.786;2023-03-01T08:22:18;4.07;;;3.42;;
53245;SDS011;39569;51.090;-1.786;2023-03-01T08:24:47;6.40;;;4.32;;
53245;SDS011;39569;51.090;-1.786;2023-03-01T08:27:14;3.78;;;2.90;;
53245;SDS011;39569;51.090;-1.786;2023-03-01T08:29:41;9.40;;;2.92;;
53245;SDS011;39569;51.090;-1.786;2023-03-01T08:32:08;4.60;;;2.78;;
53245;SDS011;39569;51.090;-1.786;2023-03-01T08:34:35;2.50;;;2.10;;
53245;SDS011;39569;51.090;-1.786;2023-03-01T08:37:02;2.08;;;1.98;;
53245;SDS011;39569;51.090;-1.786;2023-03-01T08:39:29;4.75;;;2.80;;
53245;SDS011;39569;51.090;-1.786;2023-03-01T08:41:57;2.40;;;1.77;;
53245;SDS011;39569;51.090;-1.786;2023-03-01T08:44:24;2.08;;;1.98;;
53245;SDS011;39569;51.090;-1.786;2023-03-01T08:46:51;11.77;;;2.90;;
53245;SDS011;39569;51.090;-1.786;2023-03-01T08:49:19;3.17;;;2.88;;
53245;SDS011;39569;51.090;-1.786;2023-03-01T08:51:47;5.50;;;3.40;;
53245;SDS011;39569;51.090;-1.786;2023-03-01T08:54:15;2.65;;;2.05;;
53245;SDS011;39569;51.090;-1.786;2023-03-01T08:56:43;2.65;;;2.15;;
53245;SDS011;39569;51.090;-1.786;2023-03-01T08:59:12;1.95;;;1.85;;
53245;SDS011;39569;51.090;-1.786;2023-03-01T09:01:40;1.33;;;1.33;;
53245;SDS011;39569;51.090;-1.786;2023-03-01T09:04:08;1.50;;;1.40;;
53245;SDS011;39569;51.090;-1.786;2023-03-01T09:06:35;3.80;;;1.88;;
53245;SDS011;39569;51.090;-1.786;2023-03-01T09:09:03;1.70;;;1.60;;
53245;SDS011;39569;51.090;-1.786;2023-03-01T09:11:31;2.15;;;1.88;;
53245;SDS011;39569;51.090;-1.786;2023-03-01T09:13:58;1.75;;;1.65;;
53245;SDS011;39569;51.090;-1.786;2023-03-01T09:16:26;1.80;;;1.70;;
53245;SDS011;39569;51.090;-1.786;2023-03-01T09:18:54;3.60;;;1.60;;
53245;SDS011;39569;51.090;-1.786;2023-03-01T09:21:22;6.13;;;4.28;;
53245;SDS011;39569;51.090;-1.786;2023-03-01T09:23:50;1.50;;;1.40;;
53245;SDS011;39569;51.090;-1.786;2023-03-01T09:26:17;2.10;;;2.00;;
53245;SDS011;39569;51.090;-1.786;2023-03-01T09:28:47;2.08;;;1.98;;
53245;SDS011;39569;51.090;-1.786;2023-03-01T09:31:15;7.20;;;1.90;;
53245;SDS011;39569;51.090;-1.786;2023-03-01T09:33:45;2.90;;;2.03;;
53245;SDS011;39569;51.090;-1.786;2023-03-01T09:36:15;1.55;;;1.45;;
53245;SDS011;39569;51.090;-1.786;2023-03-01T09:38:44;1.92;;;1.83;;
53245;SDS011;39569;51.090;-1.786;2023-03-01T09:41:16;2.47;;;2.30;;
53245;SDS011;39569;51.090;-1.786;2023-03-01T09:43:53;1.27;;;1.25;;
53245;SDS011;39569;51.090;-1.786;2023-03-01T09:46:26;1.23;;;1.23;;
53245;SDS011;39569;51.090;-1.786;2023-03-01T09:48:56;2.33;;;1.45;;
53245;SDS011;39569;51.090;-1.786;2023-03-01T09:51:29;1.00;;;1.00;;
53245;SDS011;39569;51.090;-1.786;2023-03-01T09:53:58;1.40;;;1.40;;
53245;SDS011;39569;51.090;-1.786;2023-03-01T09:56:30;1.13;;;1.13;;
53245;SDS011;39569;51.090;-1.786;2023-03-01T09:59:05;1.23;;;1.13;;
53245;SDS011;39569;51.090;-1.786;2023-03-01T10:01:44;1.70;;;1.60;;
53245;SDS011;39569;51.090;-1.786;2023-03-01T10:04:27;0.65;;;0.65;;
53245;SDS011;39569;51.090;-1.786;2023-03-01T10:07:10;0.70;;;0.70;;
53245;SDS011;39569;51.090;-1.786;2023-03-01T10:09:47;0.82;;;0.80;;
53245;SDS011;39569;51.090;-1.786;2023-03-01T10:12:15;0.70;;;0.70;;
53245;SDS011;39569;51.090;-1.786;2023-03-01T10:14:47;0.68;;;0.68;;
53245;SDS011;39569;51.090;-1.786;2023-03-01T10:17:24;1.77;;;0.82;;
53245;SDS011;39569;51.090;-1.786;2023-03-01T10:19:58;0.80;;;0.80;;
53245;SDS011;39569;51.090;-1.786;2023-03-01T10:22:41;0.98;;;0.65;;
53245;SDS011;39569;51.090;-1.786;2023-03-01T10:25:13;0.52;;;0.52;;
53245;SDS011;39569;51.090;-1.786;2023-03-01T10:27:43;1.05;;;1.00;;
53245;SDS011;39569;51.090;-1.786;2023-03-01T10:30:17;0.70;;;0.70;;
53245;SDS011;39569;51.090;-1.786;2023-03-01T10:32:47;0.85;;;0.80;;
53245;SDS011;39569;51.090;-1.786;2023-03-01T10:35:19;0.50;;;0.50;;
53245;SDS011;39569;51.090;-1.786;2023-03-01T10:37:56;0.90;;;0.90;;
53245;SDS011;39569;51.090;-1.786;2023-03-01T10:40:24;0.93;;;0.77;;
53245;SDS011;39569;51.090;-1.786;2023-03-01T10:42:51;3.25;;;1.65;;
53245;SDS011;39569;51.090;-1.786;2023-03-01T10:45:30;1.02;;;0.80;;
53245;SDS011;39569;51.090;-1.786;2023-03-01T10:48:06;1.17;;;1.17;;
53245;SDS011;39569;51.090;-1.786;2023-03-01T10:50:40;1.60;;;1.50;;
53245;SDS011;39569;51.090;-1.786;2023-03-01T10:53:18;2.13;;;2.03;;
53245;SDS011;39569;51.090;-1.786;2023-03-01T10:55:48;2.25;;;1.23;;
53245;SDS011;39569;51.090;-1.786;2023-03-01T11:00:51;1.63;;;1.52;;
53245;SDS011;39569;51.090;-1.786;2023-03-01T11:03:21;1.35;;;1.35;;
53245;SDS011;39569;51.090;-1.786;2023-03-01T11:05:58;1.38;;;1.33;;
53245;SDS011;39569;51.090;-1.786;2023-03-01T11:11:21;1.40;;;1.40;;
53245;SDS011;39569;51.090;-1.786;2023-03-01T11:13:54;1.73;;;1.63;;
53245;SDS011;39569;51.090;-1.786;2023-03-01T11:16:27;1.33;;;1.23;;
53245;SDS011;39569;51.090;-1.786;2023-03-01T11:18:57;1.67;;;1.58;;
53245;SDS011;39569;51.090;-1.786;2023-03-01T11:21:28;1.48;;;1.38;;
53245;SDS011;39569;51.090;-1.786;2023-03-01T11:23:59;1.08;;;1.00;;
53245;SDS011;39569;51.090;-1.786;2023-03-01T11:26:27;1.10;;;1.10;;
53245;SDS011;39569;51.090;-1.786;2023-03-01T11:28:58;3.75;;;3.40;;
53245;SDS011;39569;51.090;-1.786;2023-03-01T11:31:30;4.00;;;3.70;;
53245;SDS011;39569;51.090;-1.786;2023-03-01T11:33:59;3.63;;;3.42;;
53245;SDS011;39569;51.090;-1.786;2023-03-01T11:36:39;4.72;;;4.32;;
53245;SDS011;39569;51.090;-1.786;2023-03-01T11:39:13;4.03;;;3.72;;
53245;SDS011;39569;51.090;-1.786;2023-03-01T11:41:47;2.58;;;1.77;;
53245;SDS011;39569;51.090;-1.786;2023-03-01T11:44:18;2.50;;;2.30;;
53245;SDS011;39569;51.090;-1.786;2023-03-01T11:47:03;1.92;;;1.83;;
53245;SDS011;39569;51.090;-1.786;2023-03-01T11:49:49;5.45;;;3.25;;
53245;SDS011;39569;51.090;-1.786;2023-03-01T11:52:37;5.70;;;5.25;;
53245;SDS011;39569;51.090;-1.786;2023-03-01T11:55:18;5.35;;;2.13;;
53245;SDS011;39569;51.090;-1.786;2023-03-01T11:57:55;1.90;;;1.80;;
53245;SDS011;39569;51.090;-1.786;2023-03-01T12:00:39;2.72;;;2.53;;
53245;SDS011;39569;51.090;-1.786;2023-03-01T12:03:24;2.10;;;1.70;;
53245;SDS011;39569;51.090;-1.786;2023-03-01T12:06:02;2.38;;;2.17;;
53245;SDS011;39569;51.090;-1.786;2023-03-01T12:08:51;5.13;;;2.78;;
53245;SDS011;39569;51.090;-1.786;2023-03-01T12:11:32;5.13;;;2.17;;
53245;SDS011;39569;51.090;-1.786;2023-03-01T12:14:25;10.05;;;5.95;;
53245;SDS011;39569;51.090;-1.786;2023-03-01T12:17:20;7.05;;;5.78;;
53245;SDS011;39569;51.090;-1.786;2023-03-01T12:20:13;8.88;;;5.93;;
53245;SDS011;39569;51.090;-1.786;2023-03-01T12:22:50;4.80;;;3.13;;
53245;SDS011;39569;51.090;-1.786;2023-03-01T12:25:32;29.92;;;10.70;;
53245;SDS011;39569;51.090;-1.786;2023-03-01T12:28:09;2.58;;;2.38;;
53245;SDS011;39569;51.090;-1.786;2023-03-01T12:30:53;2.28;;;2.08;;
53245;SDS011;39569;51.090;-1.786;2023-03-01T12:33:33;4.65;;;4.28;;
53245;SDS011;39569;51.090;-1.786;2023-03-01T12:36:14;11.25;;;2.22;;
53245;SDS011;39569;51.090;-1.786;2023-03-01T12:38:49;2.35;;;2.15;;
53245;SDS011;39569;51.090;-1.786;2023-03-01T12:44:20;2.47;;;2.35;;
53245;SDS011;39569;51.090;-1.786;2023-03-01T12:47:00;3.15;;;2.03;;
53245;SDS011;39569;51.090;-1.786;2023-03-01T12:49:34;7.00;;;3.47;;
53245;SDS011;39569;51.090;-1.786;2023-03-01T12:52:09;10.93;;;7.10;;
53245;SDS011;39569;51.090;-1.786;2023-03-01T12:54:39;7.95;;;5.82;;
53245;SDS011;39569;51.090;-1.786;2023-03-01T12:57:11;5.35;;;4.97;;
53245;SDS011;39569;51.090;-1.786;2023-03-01T12:59:43;2.43;;;2.23;;
53245;SDS011;39569;51.090;-1.786;2023-03-01T13:02:19;5.82;;;5.18;;
53245;SDS011;39569;51.090;-1.786;2023-03-01T13:05:00;6.03;;;5.53;;
53245;SDS011;39569;51.090;-1.786;2023-03-01T13:07:44;6.00;;;5.50;;
53245;SDS011;39569;51.090;-1.786;2023-03-01T13:10:21;7.28;;;5.70;;
53245;SDS011;39569;51.090;-1.786;2023-03-01T13:13:00;6.82;;;5.95;;
53245;SDS011;39569;51.090;-1.786;2023-03-01T13:15:30;1.48;;;1.38;;
53245;SDS011;39569;51.090;-1.786;2023-03-01T13:17:59;2.15;;;1.92;;
53245;SDS011;39569;51.090;-1.786;2023-03-01T13:20:29;1.55;;;1.48;;
53245;SDS011;39569;51.090;-1.786;2023-03-01T13:23:02;3.22;;;3.03;;
53245;SDS011;39569;51.090;-1.786;2023-03-01T13:25:32;10.95;;;5.70;;
53245;SDS011;39569;51.090;-1.786;2023-03-01T13:31:09;1.70;;;1.60;;
53245;SDS011;39569;51.090;-1.786;2023-03-01T13:33:41;2.25;;;2.08;;
53245;SDS011;39569;51.090;-1.786;2023-03-01T13:36:10;6.85;;;4.60;;
53245;SDS011;39569;51.090;-1.786;2023-03-01T13:39:01;4.47;;;4.10;;
53245;SDS011;39569;51.090;-1.786;2023-03-01T13:41:48;4.10;;;3.58;;
53245;SDS011;39569;51.090;-1.786;2023-03-01T13:44:19;2.30;;;2.15;;
53245;SDS011;39569;51.090;-1.786;2023-03-01T13:46:51;1.63;;;1.55;;
53245;SDS011;39569;51.090;-1.786;2023-03-01T13:49:19;2.25;;;2.13;;
53245;SDS011;39569;51.090;-1.786;2023-03-01T13:51:49;3.60;;;3.33;;
53245;SDS011;39569;51.090;-1.786;2023-03-01T13:54:19;3.90;;;3.63;;
53245;SDS011;39569;51.090;-1.786;2023-03-01T13:56:54;6.15;;;3.90;;
53245;SDS011;39569;51.090;-1.786;2023-03-01T13:59:22;2.22;;;2.03;;
53245;SDS011;39569;51.090;-1.786;2023-03-01T14:01:54;2.28;;;2.08;;
53245;SDS011;39569;51.090;-1.786;2023-03-01T14:04:23;2.08;;;1.95;;
53245;SDS011;39569;51.090;-1.786;2023-03-01T14:06:52;2.05;;;1.95;;
53245;SDS011;39569;51.090;-1.786;2023-03-01T14:09:37;4.45;;;4.05;;
53245;SDS011;39569;51.090;-1.786;2023-03-01T14:12:10;3.63;;;3.42;;
53245;SDS011;39569;51.090;-1.786;2023-03-01T14:14:59;4.43;;;3.15;;
53245;SDS011;39569;51.090;-1.786;2023-03-01T14:20:22;2.97;;;2.78;;
53245;SDS011;39569;51.090;-1.786;2023-03-01T14:22:51;3.22;;;3.03;;
53245;SDS011;39569;51.090;-1.786;2023-03-01T14:25:23;6.50;;;3.55;;
53245;SDS011;39569;51.090;-1.786;2023-03-01T14:27:55;3.75;;;3.33;;
53245;SDS011;39569;51.090;-1.786;2023-03-01T14:30:24;1.63;;;1.52;;
53245;SDS011;39569;51.090;-1.786;2023-03-01T14:32:55;28.48;;;2.63;;
53245;SDS011;39569;51.090;-1.786;2023-03-01T14:35:24;3.97;;;3.15;;
53245;SDS011;39569;51.090;-1.786;2023-03-01T14:37:52;3.58;;;3.28;;
53245;SDS011;39569;51.090;-1.786;2023-03-01T14:40:24;4.28;;;3.38;;
53245;SDS011;39569;51.090;-1.786;2023-03-01T14:42:53;2.85;;;2.65;;
53245;SDS011;39569;51.090;-1.786;2023-03-01T14:45:21;1.02;;;0.90;;
53245;SDS011;39569;51.090;-1.786;2023-03-01T14:47:51;1.25;;;1.25;;
53245;SDS011;39569;51.090;-1.786;2023-03-01T14:50:21;2.30;;;1.45;;
53245;SDS011;39569;51.090;-1.786;2023-03-01T14:52:50;1.13;;;1.13;;
53245;SDS011;39569;51.090;-1.786;2023-03-01T14:55:21;2.45;;;2.28;;
53245;SDS011;39569;51.090;-1.786;2023-03-01T14:57:52;3.45;;;2.60;;
53245;SDS011;39569;51.090;-1.786;2023-03-01T15:00:20;2.20;;;2.03;;
53245;SDS011;39569;51.090;-1.786;2023-03-01T15:02:48;0.98;;;0.98;;
53245;SDS011;39569;51.090;-1.786;2023-03-01T15:05:18;2.15;;;2.05;;